Time;durP1;ratioP1;P1;durP2;ratioP2;P2;SDS_P1;SDS_P2;PMS_P1;PMS_P2;Temp;Humidity;BMP_temperature;BMP_pressure;BME280_temperature;BME280_humidity;BME280_pressure;Samples;Min_cycle;Max_cycle;Signal;HPM_P1;HPM_P2
2021/12/17 00:02:28;;;;;;;6.13;5.55;;;21.90;46.30;;;;;;5015176;28;20200;-69
2021/12/17 00:04:52;;;;;;;5.82;5.30;;;21.80;46.20;;;;;;5014790;28;20241;-69
2021/12/17 00:07:21;;;;;;;5.47;4.90;;;21.80;46.30;;;;;;5014791;28;20218;-69
2021/12/17 00:09:51;;;;;;;5.75;5.25;;;21.80;46.30;;;;;;5014683;28;20191;-70
2021/12/17 00:12:22;;;;;;;5.22;4.82;;;21.80;46.30;;;;;;5014585;28;20191;-70
2021/12/17 00:14:50;;;;;;;5.82;5.10;;;21.80;46.30;;;;;;5031017;28;20195;-69
2021/12/17 00:17:24;;;;;;;5.57;5.07;;;21.80;46.30;;;;;;5031021;28;20203;-69
2021/12/17 00:52:20;;;;;;;4.68;4.28;;;21.80;46.30;;;;;;5018386;28;20209;-69
2021/12/17 00:54:46;;;;;;;5.30;4.80;;;21.80;46.30;;;;;;5018595;28;20183;-69
2021/12/17 00:57:16;;;;;;;4.80;4.40;;;21.90;46.40;;;;;;5002004;28;20302;-70
2021/12/17 00:59:52;;;;;;;5.30;4.90;;;21.90;46.40;;;;;;5002261;28;20333;-69
2021/12/17 01:02:29;;;;;;;4.70;4.30;;;21.90;46.40;;;;;;5018060;28;20743;-69
2021/12/17 01:05:01;;;;;;;4.13;3.83;;;21.80;47.00;;;;;;5018272;28;20588;-70
2021/12/17 01:07:33;;;;;;;3.92;3.53;;;21.80;46.40;;;;;;5001780;28;20225;-69
2021/12/17 01:10:07;;;;;;;3.95;3.65;;;21.90;46.40;;;;;;5018360;28;20175;-69
2021/12/17 01:12:43;;;;;;;4.40;4.00;;;21.80;46.40;;;;;;5018271;28;20254;-69
2021/12/17 01:15:31;;;;;;;5.22;4.72;;;21.90;46.40;;;;;;5017931;28;20195;-69
2021/12/17 01:18:20;;;;;;;4.95;4.55;;;21.90;46.40;;;;;;5003960;28;20210;-69
2021/12/17 01:35:46;;;;;;;4.22;3.92;;;21.90;46.40;;;;;;5017577;28;20171;-69
2021/12/17 01:43:43;;;;;;;4.20;3.80;;;21.90;46.40;;;;;;5017374;28;20167;-69
2021/12/17 01:46:14;;;;;;;4.18;3.80;;;21.80;46.40;;;;;;5017190;28;20191;-69
2021/12/17 01:49:22;;;;;;;3.58;3.28;;;21.80;46.30;;;;;;5017244;28;20188;-69
2021/12/17 02:00:09;;;;;;;3.35;3.15;;;21.80;46.30;;;;;;5017292;28;20183;-69
2021/12/17 02:02:50;;;;;;;4.20;3.63;;;21.90;46.40;;;;;;5034638;28;20206;-69
2021/12/17 02:05:24;;;;;;;3.45;3.15;;;21.80;46.40;;;;;;5033447;28;20184;-69
2021/12/17 02:07:53;;;;;;;3.53;3.22;;;21.80;46.30;;;;;;5016912;28;20225;-69
2021/12/17 02:21:25;;;;;;;3.45;3.20;;;21.80;46.40;;;;;;5016610;28;20187;-69
2021/12/17 02:30:20;;;;;;;3.42;3.20;;;21.90;46.40;;;;;;5016632;28;20188;-69
2021/12/17 02:32:09;;;;;;;3.28;3.08;;;21.80;46.30;;;;;;5029055;28;20199;-69
2021/12/17 02:37:24;;;;;;;3.00;2.80;;;21.90;46.40;;;;;;5016246;28;20210;-70
2021/12/17 02:45:32;;;;;;;2.83;2.63;;;21.90;46.40;;;;;;5033592;28;20237;-69
2021/12/17 02:48:21;;;;;;;2.50;2.33;;;21.90;46.40;;;;;;4999872;28;20211;-69
2021/12/17 02:50:53;;;;;;;3.10;2.88;;;21.90;46.40;;;;;;5016478;28;20191;-69
2021/12/17 02:53:21;;;;;;;2.92;2.72;;;21.80;46.30;;;;;;5016045;28;20716;-69
2021/12/17 02:55:53;;;;;;;2.72;2.53;;;21.90;46.40;;;;;;5016367;28;20183;-69
2021/12/17 02:58:24;;;;;;;2.80;2.60;;;21.90;46.40;;;;;;5015962;28;20203;-69
2021/12/17 03:00:51;;;;;;;2.70;2.50;;;21.90;46.40;;;;;;5032238;28;20184;-69
2021/12/17 03:03:20;;;;;;;3.10;2.85;;;21.80;46.30;;;;;;5032330;28;20201;-70
2021/12/17 03:05:48;;;;;;;3.00;2.80;;;21.90;46.40;;;;;;5015707;28;20191;-70
2021/12/17 03:08:16;;;;;;;2.90;2.70;;;21.90;46.40;;;;;;5015452;28;20207;-69
2021/12/17 03:10:47;;;;;;;2.88;2.65;;;21.90;46.40;;;;;;5016272;28;20198;-69
2021/12/17 03:13:14;;;;;;;3.25;2.95;;;21.90;46.40;;;;;;5015947;28;20183;-69
2021/12/17 03:23:58;;;;;;;2.65;2.45;;;21.80;46.30;;;;;;4992501;28;20187;-69
2021/12/17 03:26:29;;;;;;;2.58;2.38;;;21.80;46.40;;;;;;5031777;28;20199;-69
2021/12/17 03:29:02;;;;;;;2.80;2.60;;;21.80;46.40;;;;;;5015390;28;20239;-69
2021/12/17 03:31:29;;;;;;;2.60;2.40;;;21.80;46.30;;;;;;5015429;28;20224;-69
2021/12/17 03:34:16;;;;;;;2.60;2.40;;;21.80;46.30;;;;;;5015537;28;20260;-70
2021/12/17 03:36:44;;;;;;;2.08;1.98;;;21.90;46.40;;;;;;5015165;28;20234;-70
2021/12/17 03:39:10;;;;;;;2.60;2.40;;;21.90;46.40;;;;;;5012370;28;20196;-69
2021/12/17 03:41:38;;;;;;;2.35;2.15;;;21.80;46.30;;;;;;5022279;28;20222;-70
2021/12/17 03:44:08;;;;;;;2.38;2.22;;;21.80;46.30;;;;;;5015677;28;20181;-70
2021/12/17 03:46:52;;;;;;;2.30;2.10;;;21.90;46.40;;;;;;5054168;22;20281;-70
2021/12/17 03:49:22;;;;;;;1.90;1.80;;;21.80;46.40;;;;;;5045572;28;20240;-72
2021/12/17 03:52:05;;;;;;;2.33;2.13;;;21.80;46.40;;;;;;5026169;28;20566;-72
2021/12/17 03:54:36;;;;;;;2.08;1.98;;;21.80;46.40;;;;;;5034624;28;20678;-72
2021/12/17 03:57:08;;;;;;;2.35;2.15;;;21.90;46.40;;;;;;5030772;28;20214;-71
2021/12/17 03:59:35;;;;;;;2.50;2.30;;;21.80;46.30;;;;;;5034162;28;20182;-72
2021/12/17 04:02:01;;;;;;;2.08;1.98;;;21.90;46.40;;;;;;5018074;28;20213;-72
2021/12/17 04:04:27;;;;;;;2.28;2.17;;;21.90;46.40;;;;;;5030209;28;20677;-71
2021/12/17 04:07:13;;;;;;;1.90;1.80;;;21.90;46.40;;;;;;5031398;28;20207;-72
2021/12/17 04:10:04;;;;;;;1.98;1.88;;;21.80;46.40;;;;;;5003603;28;20271;-72
2021/12/17 04:12:56;;;;;;;2.08;1.98;;;21.80;46.40;;;;;;5014849;28;20191;-71
2021/12/17 04:15:19;;;;;;;2.00;1.90;;;21.80;46.40;;;;;;5030838;28;20282;-73
2021/12/17 04:17:52;;;;;;;2.15;2.05;;;21.90;46.40;;;;;;5016068;28;20213;-72
2021/12/17 04:20:18;;;;;;;2.15;2.05;;;21.90;46.40;;;;;;5034456;28;20206;-72
2021/12/17 04:22:44;;;;;;;2.17;1.80;;;21.80;46.40;;;;;;5014929;28;20213;-72
2021/12/17 04:25:10;;;;;;;1.92;1.83;;;21.80;46.40;;;;;;5033963;28;20182;-72
2021/12/17 04:27:37;;;;;;;2.08;1.98;;;21.90;46.40;;;;;;5014451;28;20203;-71
2021/12/17 04:30:04;;;;;;;2.00;1.90;;;21.90;47.10;;;;;;5016448;28;20184;-72
2021/12/17 04:32:30;;;;;;;2.35;2.17;;;21.80;46.40;;;;;;5017766;28;20179;-72
2021/12/17 04:34:56;;;;;;;2.00;1.90;;;21.90;46.50;;;;;;5014228;28;20187;-71
2021/12/17 04:37:29;;;;;;;2.00;1.90;;;21.80;46.40;;;;;;5032657;28;20213;-72
2021/12/17 04:39:59;;;;;;;2.00;1.90;;;21.80;46.40;;;;;;5018213;28;20179;-72
2021/12/17 04:45:02;;;;;;;1.70;1.60;;;21.80;46.40;;;;;;5034111;28;20646;-72
2021/12/17 04:58:31;;;;;;;1.65;1.55;;;21.80;46.30;;;;;;5032561;28;20286;-72
2021/12/17 05:00:58;;;;;;;1.83;1.70;;;21.80;46.40;;;;;;5031122;28;20792;-72
2021/12/17 05:03:25;;;;;;;1.77;1.67;;;21.80;46.50;;;;;;5033720;28;20178;-72
2021/12/17 05:05:51;;;;;;;1.83;1.73;;;21.80;46.40;;;;;;5025219;28;20171;-72
2021/12/17 05:08:25;;;;;;;1.65;1.45;;;21.80;46.50;;;;;;5000094;28;20199;-72
2021/12/17 05:19:32;;;;;;;1.60;1.50;;;21.80;46.40;;;;;;5040255;28;20175;-72
2021/12/17 05:22:04;;;;;;;1.60;1.50;;;21.80;46.40;;;;;;5032322;28;20211;-72
2021/12/17 05:24:30;;;;;;;1.60;1.50;;;21.80;46.40;;;;;;5036806;28;20194;-72
2021/12/17 05:26:56;;;;;;;1.65;1.55;;;21.80;46.30;;;;;;5037005;28;20229;-72
2021/12/17 05:29:23;;;;;;;1.60;1.50;;;21.80;46.30;;;;;;5020952;28;20174;-71
2021/12/17 05:31:49;;;;;;;1.45;1.40;;;21.80;46.40;;;;;;5020955;28;20261;-72
2021/12/17 05:34:16;;;;;;;1.58;1.48;;;21.80;46.30;;;;;;5034831;28;20670;-71
2021/12/17 05:36:55;;;;;;;1.40;1.30;;;21.90;46.40;;;;;;5019418;28;20580;-72
2021/12/17 05:39:26;;;;;;;1.45;1.35;;;21.80;46.40;;;;;;5034516;28;20222;-72
2021/12/17 05:41:54;;;;;;;1.60;1.50;;;21.80;46.30;;;;;;5037171;28;20199;-72
2021/12/17 05:44:31;;;;;;;1.58;1.48;;;21.80;46.30;;;;;;5018785;28;20206;-71
2021/12/17 05:46:57;;;;;;;1.60;1.50;;;21.80;46.30;;;;;;5020320;28;20697;-72
2021/12/17 05:49:27;;;;;;;1.50;1.40;;;21.80;46.30;;;;;;5036670;28;20186;-72
2021/12/17 05:51:57;;;;;;;1.90;1.80;;;21.80;46.30;;;;;;5035056;28;20274;-72
2021/12/17 05:54:24;;;;;;;1.65;1.55;;;21.80;46.30;;;;;;5020299;28;20206;-72
2021/12/17 05:56:52;;;;;;;1.52;1.42;;;21.80;46.30;;;;;;5020353;28;20213;-72
2021/12/17 05:59:19;;;;;;;1.30;1.20;;;21.80;46.30;;;;;;5033660;28;20201;-71
2021/12/17 06:01:45;;;;;;;1.70;1.60;;;21.80;46.30;;;;;;5025411;28;20211;-72
2021/12/17 06:04:11;;;;;;;1.35;1.27;;;21.80;46.30;;;;;;5009204;28;20209;-71
2021/12/17 06:06:56;;;;;;;1.67;1.58;;;21.70;46.20;;;;;;5022695;28;20203;-72
2021/12/17 06:09:22;;;;;;;1.70;1.60;;;21.80;46.40;;;;;;5053216;28;20714;-72
2021/12/17 06:11:48;;;;;;;1.48;1.38;;;21.80;46.30;;;;;;5037113;28;20270;-72
2021/12/17 06:14:17;;;;;;;1.60;1.50;;;21.80;46.30;;;;;;5041306;28;20182;-72
2021/12/17 06:16:42;;;;;;;1.63;1.52;;;21.80;46.30;;;;;;5031096;28;20186;-72
2021/12/17 06:19:13;;;;;;;1.48;1.30;;;21.80;46.30;;;;;;5031793;28;20185;-71
2021/12/17 06:21:39;;;;;;;1.48;1.38;;;21.80;46.40;;;;;;5056127;28;20209;-73
2021/12/17 06:24:05;;;;;;;1.50;1.40;;;21.80;46.30;;;;;;5056634;28;20188;-72
2021/12/17 06:26:33;;;;;;;1.67;1.58;;;21.80;46.30;;;;;;5056231;28;20177;-73
2021/12/17 06:29:00;;;;;;;1.38;1.27;;;21.80;46.30;;;;;;5040002;28;20202;-71
2021/12/17 06:31:27;;;;;;;2.50;1.65;;;21.80;46.30;;;;;;5039867;28;20274;-73
2021/12/17 06:33:55;;;;;;;1.70;1.60;;;21.80;46.40;;;;;;5056025;28;20185;-73
2021/12/17 06:36:20;;;;;;;1.67;1.58;;;21.80;46.30;;;;;;5046197;28;20204;-73
2021/12/17 06:38:47;;;;;;;1.58;1.48;;;21.80;46.30;;;;;;5019444;28;20198;-73
2021/12/17 06:41:15;;;;;;;1.67;1.58;;;21.80;46.40;;;;;;5036420;28;20182;-73
2021/12/17 06:43:43;;;;;;;1.58;1.48;;;21.80;46.30;;;;;;5019882;28;20187;-73
2021/12/17 06:48:39;;;;;;;1.77;1.67;;;21.80;46.30;;;;;;5035773;28;20292;-72
2021/12/17 07:06:52;;;;;;;1.48;1.38;;;21.80;46.30;;;;;;5053332;28;20201;-73
2021/12/17 07:10:02;;;;;;;1.50;1.40;;;21.80;46.30;;;;;;5053517;28;20186;-74
2021/12/17 07:21:01;;;;;;;1.60;1.50;;;21.80;46.30;;;;;;5035705;28;20186;-74
2021/12/17 07:23:16;;;;;;;1.70;1.60;;;21.80;46.30;;;;;;5032966;28;20473;-73
2021/12/17 07:28:55;;;;;;;1.50;1.40;;;21.80;46.30;;;;;;5035218;28;20199;-73
2021/12/17 07:34:13;;;;;;;1.42;1.33;;;21.80;46.30;;;;;;4981378;28;20214;-73
2021/12/17 07:39:29;;;;;;;1.60;1.50;;;21.80;46.30;;;;;;5035098;28;20198;-73
2021/12/17 07:42:13;;;;;;;1.70;1.30;;;21.80;46.30;;;;;;5052717;28;20217;-73
2021/12/17 07:44:39;;;;;;;2.10;1.50;;;21.80;46.30;;;;;;5035412;28;20182;-73
2021/12/17 07:47:26;;;;;;;1.48;1.38;;;21.80;46.30;;;;;;5023629;28;20214;-72
2021/12/17 07:50:19;;;;;;;1.75;1.65;;;21.80;46.30;;;;;;5034831;28;20210;-73
2021/12/17 07:53:03;;;;;;;1.73;1.55;;;21.90;46.30;;;;;;5034958;28;20228;-73
2021/12/17 07:55:33;;;;;;;1.60;1.50;;;21.80;46.20;;;;;;5035659;28;20163;-73
2021/12/17 07:58:03;;;;;;;1.30;1.20;;;21.80;46.30;;;;;;5018731;28;20210;-73
2021/12/17 08:00:34;;;;;;;1.60;1.50;;;21.80;46.30;;;;;;5019377;28;20642;-73
2021/12/17 08:03:02;;;;;;;1.55;1.45;;;21.80;46.30;;;;;;5018311;28;20301;-73
2021/12/17 08:06:02;;;;;;;1.50;1.40;;;21.80;46.30;;;;;;5032007;28;20559;-73
2021/12/17 08:08:31;;;;;;;1.65;1.55;;;21.90;46.30;;;;;;5034770;28;20226;-73
2021/12/17 08:11:06;;;;;;;1.50;1.40;;;21.90;46.40;;;;;;5034610;28;20178;-73
2021/12/17 08:13:34;;;;;;;1.77;1.67;;;21.80;46.30;;;;;;5034717;28;20696;-73
2021/12/17 08:32:06;;;;;;;1.52;1.42;;;21.80;46.30;;;;;;5034665;28;20174;-73
2021/12/17 08:34:41;;;;;;;1.88;1.77;;;21.80;46.30;;;;;;5034303;28;20228;-73
2021/12/17 08:37:09;;;;;;;1.70;1.60;;;21.80;46.30;;;;;;5034072;28;20268;-73
2021/12/17 08:39:35;;;;;;;1.80;1.70;;;21.80;46.30;;;;;;5034496;28;20719;-73
2021/12/17 08:42:20;;;;;;;2.00;1.90;;;21.80;46.30;;;;;;5034497;28;20252;-74
2021/12/17 08:44:46;;;;;;;1.90;1.80;;;21.80;46.20;;;;;;5038526;28;20190;-72
2021/12/17 08:47:30;;;;;;;1.67;1.58;;;21.80;46.30;;;;;;5050800;28;20337;-72
2021/12/17 08:50:04;;;;;;;1.50;1.40;;;21.80;46.30;;;;;;5051024;28;20187;-73
2021/12/17 08:52:31;;;;;;;1.52;1.42;;;21.80;46.20;;;;;;5050752;28;20208;-73
2021/12/17 08:54:57;;;;;;;1.77;1.40;;;21.80;46.20;;;;;;5051064;28;20182;-73
2021/12/17 08:57:22;;;;;;;1.65;1.55;;;21.80;46.30;;;;;;5050573;28;20279;-72
2021/12/17 08:59:48;;;;;;;1.60;1.50;;;21.80;46.30;;;;;;5054210;28;20190;-73
2021/12/17 09:02:25;;;;;;;1.67;1.58;;;21.80;46.30;;;;;;5054883;28;20264;-73
2021/12/17 09:05:10;;;;;;;2.00;1.75;;;21.80;46.20;;;;;;5054588;28;20277;-74
2021/12/17 09:07:42;;;;;;;1.70;1.60;;;21.90;46.20;;;;;;5054290;28;20206;-73
2021/12/17 09:10:27;;;;;;;2.22;2.00;;;21.80;46.20;;;;;;5055534;28;20220;-73
2021/12/17 09:12:55;;;;;;;1.70;1.60;;;21.90;46.20;;;;;;5054490;28;20731;-74
2021/12/17 09:15:21;;;;;;;1.60;1.50;;;21.80;46.70;;;;;;5041193;28;20186;-73
2021/12/17 09:18:09;;;;;;;1.60;1.50;;;21.90;46.20;;;;;;5037558;28;20245;-73
2021/12/17 09:20:45;;;;;;;1.50;1.40;;;21.90;46.20;;;;;;5037765;28;20269;-73
2021/12/17 09:23:12;;;;;;;1.60;1.50;;;21.80;46.10;;;;;;5021454;28;20234;-74
2021/12/17 09:25:39;;;;;;;1.67;1.58;;;21.90;46.20;;;;;;5037449;28;20187;-73
2021/12/17 09:28:12;;;;;;;1.77;1.67;;;21.90;46.20;;;;;;5037220;28;20647;-73
2021/12/17 09:30:59;;;;;;;1.92;1.83;;;21.80;46.10;;;;;;5037426;28;20214;-73
2021/12/17 09:33:25;;;;;;;1.83;1.73;;;21.80;46.00;;;;;;5037601;28;20190;-74
2021/12/17 09:35:52;;;;;;;1.85;1.75;;;21.80;46.00;;;;;;5037568;28;20226;-73
2021/12/17 09:38:19;;;;;;;1.80;1.70;;;21.80;46.00;;;;;;5037005;28;20211;-73
2021/12/17 09:40:45;;;;;;;1.80;1.70;;;21.80;46.00;;;;;;5037513;28;20186;-73
2021/12/17 09:43:14;;;;;;;1.73;1.63;;;21.90;46.10;;;;;;5037076;28;20289;-73
2021/12/17 09:45:40;;;;;;;1.67;1.58;;;21.80;46.00;;;;;;5037480;28;20182;-73
2021/12/17 09:48:06;;;;;;;1.60;1.50;;;21.80;46.00;;;;;;5036869;28;20210;-74
2021/12/17 09:50:32;;;;;;;1.80;1.70;;;21.80;46.00;;;;;;5037149;28;20178;-73
2021/12/17 09:52:58;;;;;;;1.50;1.40;;;21.80;46.00;;;;;;5054902;28;20697;-73
2021/12/17 09:55:25;;;;;;;1.35;1.35;;;21.90;46.10;;;;;;5020609;28;20206;-73
2021/12/17 09:57:52;;;;;;;1.70;1.60;;;21.80;46.00;;;;;;5054425;28;20759;-73
2021/12/17 10:00:22;;;;;;;1.50;1.40;;;21.90;46.10;;;;;;5037046;28;20178;-73
2021/12/17 10:02:50;;;;;;;2.00;1.70;;;21.90;46.10;;;;;;5077276;22;20625;-74
2021/12/17 10:05:32;;;;;;;1.73;1.58;;;21.80;46.00;;;;;;5036038;28;20550;-74
2021/12/17 10:08:02;;;;;;;1.98;1.88;;;21.80;46.00;;;;;;5019559;28;20190;-74
2021/12/17 10:10:56;;;;;;;1.90;1.80;;;21.80;46.00;;;;;;5052655;28;20237;-74
2021/12/17 10:13:31;;;;;;;2.30;2.17;;;21.90;46.10;;;;;;5017958;28;20219;-74
2021/12/17 10:16:10;;;;;;;2.25;2.05;;;21.90;46.10;;;;;;5028174;28;20244;-74
2021/12/17 10:18:48;;;;;;;2.05;1.95;;;21.80;46.00;;;;;;5036319;28;20190;-74
2021/12/17 10:21:21;;;;;;;2.30;2.10;;;21.80;46.00;;;;;;5036643;28;20183;-74
2021/12/17 10:23:49;;;;;;;2.67;2.08;;;21.80;46.00;;;;;;5019961;28;20186;-74
2021/12/17 10:26:19;;;;;;;1.85;1.75;;;21.80;46.60;;;;;;5036637;28;20202;-73
2021/12/17 10:28:57;;;;;;;1.98;1.88;;;21.90;46.10;;;;;;5019635;28;20228;-74
2021/12/17 10:31:24;;;;;;;1.90;1.80;;;21.90;46.10;;;;;;5036362;28;20205;-73
2021/12/17 10:33:53;;;;;;;2.30;2.10;;;21.90;46.10;;;;;;5036244;28;20190;-73
2021/12/17 10:36:34;;;;;;;2.40;2.20;;;21.90;46.10;;;;;;5053876;28;20182;-74
2021/12/17 10:39:11;;;;;;;2.00;1.90;;;21.90;46.10;;;;;;5020229;28;20349;-74
2021/12/17 10:41:49;;;;;;;2.35;2.15;;;21.90;46.10;;;;;;4980293;28;20690;-74
2021/12/17 10:44:14;;;;;;;2.45;2.25;;;21.80;46.00;;;;;;4996497;28;20192;-74
2021/12/17 10:47:07;;;;;;;2.33;1.92;;;21.90;46.70;;;;;;5012980;28;20187;-74
2021/12/17 10:49:33;;;;;;;2.10;1.90;;;21.90;46.10;;;;;;4996564;28;20188;-74
2021/12/17 10:52:14;;;;;;;1.95;1.85;;;21.90;46.00;;;;;;5012633;28;20215;-73
2021/12/17 10:54:40;;;;;;;1.70;1.60;;;21.90;46.10;;;;;;5012978;28;20207;-74
2021/12/17 10:57:08;;;;;;;2.10;2.00;;;21.90;46.00;;;;;;5012985;28;20228;-74
2021/12/17 10:59:36;;;;;;;2.20;1.92;;;21.90;46.10;;;;;;5012507;28;20207;-74
2021/12/17 11:02:11;;;;;;;2.17;2.08;;;21.90;46.10;;;;;;4996035;28;20740;-73
2021/12/17 11:04:44;;;;;;;2.22;2.03;;;21.90;46.00;;;;;;4996281;28;20184;-73
2021/12/17 11:07:16;;;;;;;1.98;1.88;;;21.90;46.00;;;;;;4996458;28;20180;-73
2021/12/17 11:09:50;;;;;;;2.03;1.92;;;21.90;46.10;;;;;;5005106;28;20566;-74
2021/12/17 11:12:35;;;;;;;2.20;2.00;;;21.90;46.10;;;;;;4999617;28;20203;-74
2021/12/17 11:15:12;;;;;;;2.17;1.98;;;21.90;46.10;;;;;;4999351;28;20179;-74
2021/12/17 11:17:43;;;;;;;2.05;1.95;;;21.90;46.10;;;;;;5015449;28;20197;-74
2021/12/17 11:20:35;;;;;;;1.85;1.75;;;21.90;46.10;;;;;;4999517;28;20183;-74
2021/12/17 11:23:08;;;;;;;2.15;2.03;;;21.90;46.20;;;;;;5015419;28;20717;-74
2021/12/17 11:25:37;;;;;;;1.88;1.77;;;21.90;46.20;;;;;;5015671;28;20659;-74
2021/12/17 11:28:07;;;;;;;2.17;2.08;;;21.90;46.10;;;;;;4998775;28;20427;-74
2021/12/17 11:30:37;;;;;;;1.98;1.88;;;21.90;46.10;;;;;;5032053;28;20172;-74
2021/12/17 11:33:04;;;;;;;1.90;1.80;;;21.90;46.10;;;;;;4999052;28;20416;-74
2021/12/17 11:35:34;;;;;;;1.95;1.85;;;21.90;46.10;;;;;;4998916;28;20712;-73
2021/12/17 11:38:07;;;;;;;2.05;1.95;;;21.90;46.10;;;;;;5021568;28;20195;-73
2021/12/17 11:40:52;;;;;;;1.92;1.83;;;21.90;46.10;;;;;;4979382;28;20295;-73
2021/12/17 11:43:50;;;;;;;1.63;1.52;;;21.90;46.20;;;;;;5011548;28;20215;-75
2021/12/17 11:46:23;;;;;;;1.65;1.55;;;21.90;46.20;;;;;;5028317;28;20195;-74
2021/12/17 11:48:58;;;;;;;1.90;1.80;;;21.90;46.20;;;;;;5026583;28;20183;-74
2021/12/17 11:51:30;;;;;;;2.20;2.00;;;21.90;46.20;;;;;;5018243;28;20589;-73
2021/12/17 11:54:09;;;;;;;1.95;1.85;;;21.90;46.20;;;;;;5051222;28;20221;-74
2021/12/17 11:56:46;;;;;;;1.70;1.60;;;21.90;46.20;;;;;;5045938;28;20190;-73
2021/12/17 11:59:24;;;;;;;2.00;1.90;;;21.90;46.30;;;;;;5034391;28;20182;-73
2021/12/17 12:02:16;;;;;;;1.58;1.48;;;21.90;46.20;;;;;;5034655;28;20218;-73
2021/12/17 12:04:59;;;;;;;1.80;1.70;;;21.90;46.20;;;;;;5032980;28;20616;-73
2021/12/17 12:07:24;;;;;;;1.70;1.60;;;21.90;46.30;;;;;;4998332;28;20730;-72
2021/12/17 12:09:58;;;;;;;1.65;1.55;;;22.00;46.30;;;;;;5032258;28;20266;-73
2021/12/17 12:12:34;;;;;;;1.70;1.60;;;21.90;46.20;;;;;;5010669;28;20219;-73
2021/12/17 12:15:30;;;;;;;1.80;1.70;;;21.90;46.20;;;;;;5011001;28;20183;-73
2021/12/17 12:18:03;;;;;;;1.60;1.50;;;21.90;46.30;;;;;;5024181;28;20188;-73
2021/12/17 12:20:50;;;;;;;1.80;1.70;;;21.90;46.20;;;;;;5033874;28;20190;-73
2021/12/17 12:23:28;;;;;;;1.92;1.83;;;21.90;46.30;;;;;;5051930;28;20557;-72
2021/12/17 12:26:08;;;;;;;1.90;1.80;;;21.90;46.20;;;;;;5035237;28;20178;-71
2021/12/17 12:28:49;;;;;;;1.80;1.70;;;21.90;46.20;;;;;;5034431;28;20249;-71
2021/12/17 12:31:30;;;;;;;1.85;1.75;;;21.90;46.30;;;;;;5017910;28;20190;-71
2021/12/17 12:34:06;;;;;;;2.20;1.60;;;21.90;46.50;;;;;;5036854;28;20158;-71
2021/12/17 12:37:07;;;;;;;1.80;1.70;;;21.90;46.30;;;;;;5021982;28;20189;-71
2021/12/17 12:39:55;;;;;;;1.88;1.60;;;22.00;46.40;;;;;;5038152;28;20206;-70
2021/12/17 12:42:36;;;;;;;2.00;1.90;;;22.00;46.30;;;;;;5038477;28;20221;-73
2021/12/17 12:45:07;;;;;;;1.92;1.83;;;21.90;46.30;;;;;;5038250;28;20323;-72
2021/12/17 12:47:54;;;;;;;1.75;1.65;;;22.00;46.40;;;;;;5038497;28;20175;-72
2021/12/17 12:50:25;;;;;;;1.75;1.63;;;21.90;46.30;;;;;;5038471;28;20269;-72
2021/12/17 12:53:09;;;;;;;1.75;1.65;;;22.00;46.50;;;;;;5038123;28;20202;-72
2021/12/17 12:55:40;;;;;;;2.88;1.85;;;22.00;46.40;;;;;;5055901;28;20187;-72
2021/12/17 12:58:18;;;;;;;1.83;1.73;;;22.00;46.50;;;;;;5038088;28;20265;-72
2021/12/17 13:00:57;;;;;;;2.25;1.50;;;22.00;46.50;;;;;;5021719;28;20280;-72
2021/12/17 13:03:27;;;;;;;1.80;1.70;;;22.00;46.50;;;;;;5021746;28;20218;-72
2021/12/17 13:05:54;;;;;;;2.53;2.00;;;22.00;46.50;;;;;;5038036;28;20183;-73
2021/12/17 13:08:22;;;;;;;2.35;1.58;;;21.90;46.40;;;;;;5037845;28;20228;-73
2021/12/17 13:10:55;;;;;;;1.73;1.63;;;21.90;46.30;;;;;;5021492;28;20182;-72
2021/12/17 13:13:34;;;;;;;1.75;1.65;;;21.90;46.40;;;;;;5021787;28;20206;-72
2021/12/17 13:16:16;;;;;;;1.55;1.45;;;21.90;46.30;;;;;;5037905;28;20185;-72
2021/12/17 13:21:36;;;;;;;1.52;1.42;;;22.00;46.40;;;;;;5055335;28;20256;-73
2021/12/17 13:24:26;;;;;;;1.60;1.50;;;22.00;46.40;;;;;;5037618;28;20606;-72
2021/12/17 13:26:59;;;;;;;1.80;1.70;;;21.90;46.40;;;;;;5020733;28;20673;-72
2021/12/17 13:29:30;;;;;;;1.75;1.63;;;22.00;46.40;;;;;;5054239;28;20193;-73
2021/12/17 13:32:01;;;;;;;1.50;1.40;;;22.00;46.40;;;;;;5037273;28;20704;-72
2021/12/17 13:34:36;;;;;;;1.73;1.63;;;22.00;46.30;;;;;;5020945;28;20566;-72
2021/12/17 13:37:13;;;;;;;1.70;1.60;;;22.00;46.30;;;;;;5037329;28;20175;-72
2021/12/17 13:40:01;;;;;;;1.60;1.50;;;22.00;46.50;;;;;;5020674;28;20190;-72
2021/12/17 13:42:31;;;;;;;1.88;1.60;;;22.00;46.40;;;;;;5037147;28;20210;-73
2021/12/17 13:45:05;;;;;;;1.75;1.50;;;22.00;46.40;;;;;;5036936;28;20218;-73
2021/12/17 13:47:34;;;;;;;2.30;1.33;;;22.00;46.40;;;;;;5054874;28;20236;-72
2021/12/17 13:50:20;;;;;;;1.60;1.50;;;22.00;46.40;;;;;;5037112;28;20190;-73
2021/12/17 13:52:56;;;;;;;1.75;1.65;;;22.00;46.40;;;;;;5037371;28;20217;-72
2021/12/17 13:55:28;;;;;;;1.60;1.50;;;22.00;46.40;;;;;;5020532;28;20285;-72
2021/12/17 13:57:56;;;;;;;1.92;1.55;;;22.00;46.60;;;;;;5036689;28;20190;-72
2021/12/17 14:00:25;;;;;;;3.35;1.80;;;22.00;46.70;;;;;;5020301;28;20221;-72
2021/12/17 14:02:58;;;;;;;2.38;1.48;;;22.00;46.70;;;;;;5036737;28;20233;-72
2021/12/17 14:05:28;;;;;;;1.67;1.58;;;22.00;46.70;;;;;;5036797;28;20214;-72
2021/12/17 14:07:59;;;;;;;1.95;1.85;;;22.00;47.40;;;;;;5052996;28;20214;-72
2021/12/17 14:10:31;;;;;;;1.40;1.30;;;22.00;46.70;;;;;;5023810;28;20214;-72
2021/12/17 14:12:58;;;;;;;1.95;1.70;;;22.00;46.70;;;;;;5017211;28;20230;-73
2021/12/17 14:15:28;;;;;;;1.50;1.40;;;22.00;46.80;;;;;;5000561;28;20199;-73
2021/12/17 14:18:05;;;;;;;2.05;1.58;;;22.00;46.70;;;;;;5000202;28;20246;-73
2021/12/17 14:20:46;;;;;;;1.50;1.40;;;22.00;46.70;;;;;;5016790;28;20182;-73
2021/12/17 14:23:21;;;;;;;1.67;1.40;;;22.00;46.80;;;;;;5000086;28;20207;-72
2021/12/17 14:25:58;;;;;;;2.00;1.90;;;22.00;46.70;;;;;;5016507;28;20187;-72
2021/12/17 14:28:36;;;;;;;1.70;1.60;;;22.00;46.70;;;;;;5016602;28;20195;-73
2021/12/17 14:31:15;;;;;;;4.15;1.65;;;22.00;46.80;;;;;;5034151;28;20167;-73
2021/12/17 14:33:49;;;;;;;1.67;1.58;;;22.00;46.70;;;;;;5016757;28;20179;-72
2021/12/17 14:36:38;;;;;;;1.48;1.38;;;22.00;46.80;;;;;;5016370;28;20208;-72
2021/12/17 14:39:18;;;;;;;2.10;1.60;;;22.00;46.80;;;;;;5016486;28;20188;-73
2021/12/17 14:47:17;;;;;;;1.92;1.73;;;22.00;46.70;;;;;;5016179;28;20190;-73
2021/12/17 15:03:41;;;;;;;1.80;1.70;;;22.00;46.80;;;;;;5032091;28;20226;-73
2021/12/17 15:06:16;;;;;;;1.33;1.30;;;22.00;46.80;;;;;;4999611;28;20187;-73
2021/12/17 15:08:43;;;;;;;2.05;1.50;;;22.00;46.70;;;;;;5015824;28;20174;-73
2021/12/17 15:11:37;;;;;;;2.05;1.70;;;22.00;46.70;;;;;;5033408;28;20206;-72
2021/12/17 15:14:01;;;;;;;1.70;1.60;;;22.00;46.80;;;;;;5015422;28;20219;-73
2021/12/17 15:16:26;;;;;;;2.00;1.90;;;22.00;46.70;;;;;;4999227;28;20630;-73
2021/12/17 15:18:52;;;;;;;2.80;1.67;;;22.00;46.80;;;;;;5015664;28;20183;-73
2021/12/17 15:21:18;;;;;;;2.42;1.90;;;22.00;46.70;;;;;;4999098;28;20182;-73
2021/12/17 15:23:44;;;;;;;1.67;1.58;;;22.00;46.80;;;;;;5015563;28;20203;-73
2021/12/17 15:26:10;;;;;;;2.22;2.00;;;22.00;46.70;;;;;;4999153;28;20584;-72
2021/12/17 15:28:35;;;;;;;2.22;1.73;;;22.00;46.80;;;;;;4998576;28;20214;-73
2021/12/17 15:31:06;;;;;;;2.28;1.80;;;21.90;46.70;;;;;;5015160;28;20255;-72
2021/12/17 15:33:34;;;;;;;2.05;1.90;;;21.90;47.20;;;;;;4999010;28;20226;-72
2021/12/17 15:35:59;;;;;;;1.52;1.42;;;21.90;46.70;;;;;;5015213;28;20191;-72
2021/12/17 15:38:25;;;;;;;1.70;1.60;;;21.90;46.70;;;;;;5015337;28;20198;-72
2021/12/17 15:40:52;;;;;;;1.77;1.67;;;21.90;46.70;;;;;;4998935;28;20191;-72
2021/12/17 15:43:20;;;;;;;1.80;1.65;;;21.90;46.70;;;;;;5015102;28;20211;-72
2021/12/17 15:45:50;;;;;;;1.73;1.63;;;21.90;46.70;;;;;;5015046;28;20725;-72
2021/12/17 15:48:20;;;;;;;1.40;1.30;;;21.90;46.70;;;;;;5014961;28;20731;-73
2021/12/17 15:50:46;;;;;;;1.90;1.67;;;22.00;46.70;;;;;;5014960;28;20195;-72
2021/12/17 15:53:12;;;;;;;1.50;1.40;;;21.90;46.70;;;;;;5011486;28;20214;-72
2021/12/17 15:55:40;;;;;;;1.50;1.40;;;22.00;46.70;;;;;;5021895;28;20618;-72
2021/12/17 15:58:07;;;;;;;1.85;1.60;;;21.90;46.60;;;;;;5014808;28;20187;-73
2021/12/17 16:00:36;;;;;;;1.92;1.65;;;22.00;46.70;;;;;;4998718;28;20651;-73
2021/12/17 16:03:06;;;;;;;1.80;1.70;;;21.90;46.60;;;;;;5016179;28;20218;-73
2021/12/17 16:05:33;;;;;;;2.25;2.05;;;22.00;46.70;;;;;;5032429;28;20568;-72
2021/12/17 16:08:00;;;;;;;1.98;1.80;;;21.90;46.60;;;;;;5014575;28;20230;-72
2021/12/17 16:18:50;;;;;;;1.80;1.70;;;21.90;46.60;;;;;;5032182;28;20639;-73
2021/12/17 16:21:16;;;;;;;1.70;1.60;;;21.90;46.60;;;;;;4998548;28;20175;-72
2021/12/17 16:23:52;;;;;;;1.98;1.80;;;21.90;46.70;;;;;;5014672;28;20215;-72
2021/12/17 16:26:23;;;;;;;2.08;1.88;;;21.90;46.70;;;;;;5032299;28;20229;-72
2021/12/17 16:28:51;;;;;;;2.40;2.10;;;21.90;46.70;;;;;;5014559;28;20183;-72
2021/12/17 16:31:22;;;;;;;2.20;2.10;;;22.00;46.70;;;;;;5014412;28;20180;-72
2021/12/17 16:33:58;;;;;;;2.30;2.10;;;21.90;46.70;;;;;;5015355;28;20190;-72
2021/12/17 16:36:24;;;;;;;2.60;2.40;;;21.90;46.70;;;;;;5032538;28;20388;-72